createdAt,value
2022-10-17T00:01:44.706Z,13.33
2022-10-17T00:04:14.062Z,13.30
2022-10-17T00:06:43.546Z,13.25
2022-10-17T00:09:12.870Z,13.23
2022-10-17T00:11:42.336Z,13.23
2022-10-17T00:14:11.783Z,13.21
2022-10-17T00:16:41.121Z,13.24
2022-10-17T00:19:10.610Z,13.23
2022-10-17T00:21:40.090Z,13.24
2022-10-17T00:24:09.422Z,13.23
2022-10-17T00:26:38.669Z,13.22
2022-10-17T00:29:08.616Z,13.20
2022-10-17T00:31:38.018Z,13.21
2022-10-17T00:34:07.362Z,13.21
2022-10-17T00:36:36.575Z,13.21
2022-10-17T00:39:05.885Z,13.21
2022-10-17T00:41:36.047Z,13.22
2022-10-17T00:44:12.153Z,13.23
2022-10-17T00:46:41.627Z,13.22
2022-10-17T00:49:12.788Z,13.23
2022-10-17T00:51:47.957Z,13.22
2022-10-17T00:54:21.811Z,13.22
2022-10-17T00:56:51.903Z,13.22
2022-10-17T00:59:22.196Z,13.22
2022-10-17T01:02:07.132Z,13.25
2022-10-17T01:04:41.586Z,13.26
2022-10-17T01:07:12.003Z,13.27
2022-10-17T01:09:42.398Z,13.23
2022-10-17T01:12:27.509Z,13.22
2022-10-17T01:15:24.878Z,13.34
2022-10-17T01:18:06.055Z,13.38
2022-10-17T01:20:44.359Z,13.45
2022-10-17T01:23:30.780Z,13.65
2022-10-17T01:26:06.205Z,13.62
2022-10-17T01:29:10.993Z,13.69
2022-10-17T01:31:46.258Z,13.83
2022-10-17T01:34:19.661Z,13.91
2022-10-17T01:36:52.157Z,13.94
2022-10-17T01:39:29.968Z,13.90
2022-10-17T01:42:01.691Z,13.90
2022-10-17T01:44:57.632Z,13.97
2022-10-17T01:47:31.806Z,14.05
2022-10-17T01:50:08.718Z,14.13
2022-10-17T01:52:43.937Z,14.10
2022-10-17T01:55:22.079Z,14.22
2022-10-17T01:57:56.588Z,14.25
2022-10-17T02:00:27.632Z,14.34
2022-10-17T02:03:00.088Z,14.37
2022-10-17T02:05:34.831Z,14.41
2022-10-17T02:08:04.178Z,14.55
2022-10-17T02:10:42.588Z,14.51
2022-10-17T02:13:34.399Z,14.46
2022-10-17T02:16:18.889Z,14.57
2022-10-17T02:19:12.528Z,14.68
2022-10-17T02:22:04.673Z,14.58
2022-10-17T02:24:37.241Z,14.62
2022-10-17T02:27:19.804Z,14.61
2022-10-17T02:29:52.183Z,14.63
2022-10-17T02:32:31.527Z,14.63
2022-10-17T02:35:03.834Z,14.62
2022-10-17T02:37:34.361Z,14.64
2022-10-17T02:40:05.114Z,14.66
2022-10-17T02:42:34.581Z,14.68
2022-10-17T02:45:05.564Z,14.71
2022-10-17T02:47:37.873Z,14.68
2022-10-17T02:50:08.552Z,14.78
2022-10-17T02:52:45.581Z,14.84
2022-10-17T02:55:21.872Z,14.84
2022-10-17T02:57:57.349Z,14.92
2022-10-17T03:00:27.956Z,14.95
2022-10-17T03:02:58.050Z,15.04
2022-10-17T03:05:29.864Z,15.16
2022-10-17T03:08:01.078Z,15.13
2022-10-17T03:10:30.467Z,15.21
2022-10-17T03:13:00.047Z,15.22
2022-10-17T03:15:29.702Z,15.22
2022-10-17T03:17:58.985Z,15.24
2022-10-17T03:20:28.729Z,15.25
2022-10-17T03:22:57.938Z,15.29
2022-10-17T03:25:27.517Z,15.35
2022-10-17T03:27:58.666Z,15.28
2022-10-17T03:30:28.948Z,15.29
2022-10-17T03:33:01.270Z,15.30
2022-10-17T03:35:30.838Z,15.31
2022-10-17T03:38:00.721Z,15.29
2022-10-17T03:40:31.275Z,15.29
2022-10-17T03:43:00.911Z,15.31
2022-10-17T03:45:31.406Z,15.26
2022-10-17T03:48:01.750Z,15.32
2022-10-17T03:50:31.388Z,15.37
2022-10-17T03:53:01.303Z,15.36
2022-10-17T03:55:30.716Z,15.41
2022-10-17T03:58:00.156Z,15.37
2022-10-17T04:00:30.100Z,15.39
2022-10-17T04:03:00.002Z,15.39
2022-10-17T04:05:29.484Z,15.41
2022-10-17T04:08:02.376Z,15.44
2022-10-17T04:10:31.795Z,15.50
2022-10-17T04:13:01.571Z,15.53
2022-10-17T04:15:31.012Z,15.54
2022-10-17T04:18:00.559Z,15.60
2022-10-17T04:20:30.849Z,15.61
2022-10-17T04:23:00.960Z,15.64
2022-10-17T04:25:33.406Z,15.67
2022-10-17T04:28:01.767Z,15.75
2022-10-17T04:30:31.083Z,15.79
2022-10-17T04:33:00.761Z,15.78
2022-10-17T04:35:30.664Z,15.75
2022-10-17T04:38:01.758Z,15.89
2022-10-17T04:40:31.403Z,15.89
2022-10-17T04:43:01.384Z,15.95
2022-10-17T04:45:32.345Z,15.98
2022-10-17T04:48:03.397Z,15.95
2022-10-17T04:50:32.775Z,15.89
2022-10-17T04:53:22.296Z,15.90
2022-10-17T04:55:51.936Z,15.82
2022-10-17T04:58:22.769Z,15.76
2022-10-17T05:00:52.663Z,15.77
2022-10-17T05:03:26.646Z,15.81
2022-10-17T05:05:56.576Z,15.88
2022-10-17T05:08:26.196Z,15.87
2022-10-17T05:10:55.761Z,15.89
2022-10-17T05:13:25.702Z,15.91
2022-10-17T05:15:57.341Z,15.91
2022-10-17T05:18:26.768Z,15.89
2022-10-17T05:20:56.805Z,15.91
2022-10-17T05:23:26.689Z,15.89
2022-10-17T05:25:56.505Z,15.89
2022-10-17T05:28:26.341Z,15.87
2022-10-17T05:30:57.515Z,15.89
2022-10-17T05:33:27.504Z,15.91
2022-10-17T05:35:57.195Z,15.88
2022-10-17T05:38:27.336Z,15.93
2022-10-17T05:41:01.043Z,15.92
2022-10-17T05:43:31.159Z,15.87
2022-10-17T05:46:02.301Z,15.84
2022-10-17T05:48:31.735Z,15.81
2022-10-17T05:51:03.860Z,15.80
2022-10-17T05:53:35.320Z,15.74
2022-10-17T05:56:08.207Z,15.75
2022-10-17T05:58:54.109Z,15.77
2022-10-17T06:01:16.276Z,15.84
2022-10-17T06:03:45.638Z,15.84
2022-10-17T06:06:16.862Z,15.85
2022-10-17T06:08:47.483Z,15.87
2022-10-17T06:11:18.643Z,15.89
2022-10-17T06:13:48.640Z,15.89
2022-10-17T06:16:19.655Z,15.86
2022-10-17T06:21:22.428Z,15.85
2022-10-17T06:23:53.246Z,15.89
2022-10-17T06:26:24.689Z,15.84
2022-10-17T06:28:55.971Z,15.86
2022-10-17T06:31:26.543Z,15.91
2022-10-17T06:33:55.951Z,15.93
2022-10-17T06:36:25.252Z,15.98
2022-10-17T06:38:54.529Z,16.02
2022-10-17T06:41:25.494Z,16.05
2022-10-17T06:43:55.955Z,16.07
2022-10-17T06:46:43.470Z,16.13
2022-10-17T06:49:14.730Z,16.14
2022-10-17T06:51:52.046Z,16.16
2022-10-17T06:54:23.117Z,16.18
2022-10-17T06:57:12.540Z,16.19
2022-10-17T06:59:43.593Z,16.17
2022-10-17T07:02:14.538Z,16.20
2022-10-17T07:04:47.836Z,16.18
2022-10-17T07:07:17.235Z,16.18
2022-10-17T07:09:46.855Z,16.19
2022-10-17T07:12:18.010Z,16.23
2022-10-17T07:14:47.433Z,16.15
2022-10-17T07:17:17.193Z,16.13
2022-10-17T07:19:47.023Z,16.18
2022-10-17T07:22:16.614Z,16.17
2022-10-17T07:24:47.821Z,16.18
2022-10-17T07:27:18.791Z,16.12
2022-10-17T07:29:48.983Z,16.12
2022-10-17T07:32:22.753Z,16.12
2022-10-17T07:34:52.009Z,16.07
2022-10-17T07:37:21.628Z,16.00
2022-10-17T07:39:52.742Z,15.94
2022-10-17T07:42:22.057Z,15.96
2022-10-17T07:44:52.223Z,15.95
2022-10-17T07:47:22.467Z,15.94
2022-10-17T07:49:51.971Z,15.94
2022-10-17T07:52:21.284Z,15.96
2022-10-17T07:54:50.804Z,15.99
2022-10-17T07:57:20.046Z,16.04
2022-10-17T07:59:50.845Z,15.99
2022-10-17T08:02:23.651Z,15.94
2022-10-17T08:04:53.731Z,16.04
2022-10-17T08:07:28.376Z,15.99
2022-10-17T08:09:55.126Z,16.06
2022-10-17T08:12:26.172Z,16.02
2022-10-17T08:14:55.540Z,16.02
2022-10-17T08:17:24.880Z,16.00
2022-10-17T08:19:54.200Z,15.99
2022-10-17T08:22:23.728Z,15.98
2022-10-17T08:24:52.957Z,16.01
2022-10-17T08:27:23.829Z,16.00
2022-10-17T08:29:54.337Z,15.94
2022-10-17T08:32:26.314Z,15.95
2022-10-17T08:34:56.168Z,15.94
2022-10-17T08:37:25.675Z,15.90
2022-10-17T08:39:55.082Z,15.92
2022-10-17T08:42:59.580Z,15.92
2022-10-17T08:45:32.124Z,15.93
2022-10-17T08:48:01.424Z,15.96
2022-10-17T08:50:45.523Z,16.01
2022-10-17T08:53:32.678Z,15.99
2022-10-17T08:56:07.194Z,15.96
2022-10-17T08:58:38.331Z,15.95
2022-10-17T09:01:27.573Z,15.95
2022-10-17T09:03:59.993Z,15.95
2022-10-17T09:06:37.897Z,15.98
2022-10-17T09:09:16.050Z,15.98
2022-10-17T09:12:25.164Z,15.99
2022-10-17T09:15:16.141Z,15.97
2022-10-17T09:18:03.447Z,15.93
2022-10-17T09:20:44.946Z,15.94
2022-10-17T09:23:20.307Z,16.00
2022-10-17T09:25:54.791Z,16.03
2022-10-17T09:28:35.243Z,16.06
2022-10-17T09:31:13.870Z,16.05
2022-10-17T09:34:00.737Z,16.08
2022-10-17T09:36:19.632Z,16.09
2022-10-17T09:38:58.171Z,16.09
2022-10-17T09:41:51.351Z,16.07
2022-10-17T09:44:35.238Z,16.08
2022-10-17T09:47:13.760Z,16.12
2022-10-17T09:49:45.833Z,16.16
2022-10-17T09:52:29.866Z,16.20
2022-10-17T09:55:02.192Z,16.14
2022-10-17T09:57:34.645Z,16.14
2022-10-17T10:00:06.479Z,16.05
2022-10-17T10:02:45.032Z,16.05
2022-10-17T10:05:20.524Z,16.12
2022-10-17T10:08:05.438Z,16.12
2022-10-17T10:10:35.131Z,16.18
2022-10-17T10:13:10.491Z,16.17
2022-10-17T10:15:42.059Z,16.18
2022-10-17T10:18:37.705Z,16.16
2022-10-17T10:21:09.622Z,16.14
2022-10-17T10:23:41.078Z,16.11
2022-10-17T10:26:22.239Z,16.14
2022-10-17T10:29:03.288Z,16.21
2022-10-17T10:31:38.516Z,16.26
2022-10-17T10:34:22.975Z,16.24
2022-10-17T10:36:58.282Z,16.27
2022-10-17T10:39:42.710Z,16.32
2022-10-17T10:42:26.403Z,16.36
2022-10-17T10:45:01.134Z,16.39
2022-10-17T10:47:32.437Z,16.40
2022-10-17T10:50:28.029Z,16.36
2022-10-17T10:53:00.433Z,16.37
2022-10-17T10:55:35.710Z,16.38
2022-10-17T10:58:08.147Z,16.39
2022-10-17T11:00:39.213Z,16.33
2022-10-17T11:03:17.170Z,16.33
2022-10-17T11:05:52.489Z,16.31
2022-10-17T11:08:28.000Z,16.30
2022-10-17T11:11:31.076Z,16.32
2022-10-17T11:14:07.468Z,16.33
2022-10-17T11:16:41.273Z,16.36
2022-10-17T11:19:20.003Z,16.37
2022-10-17T11:22:04.205Z,16.41
2022-10-17T11:24:42.252Z,16.46
2022-10-17T11:27:11.580Z,16.48
2022-10-17T11:29:42.062Z,16.52
2022-10-17T11:32:14.528Z,16.49
2022-10-17T11:34:53.257Z,16.51
2022-10-17T11:37:26.054Z,16.51
2022-10-17T11:39:58.645Z,16.54
2022-10-17T11:42:29.213Z,16.57
2022-10-17T11:45:07.758Z,16.70
2022-10-17T11:47:48.299Z,16.72
2022-10-17T11:53:06.434Z,16.88
2022-10-17T11:55:37.895Z,16.80
2022-10-17T11:58:31.426Z,16.74
2022-10-17T12:01:16.206Z,16.83
2022-10-17T12:04:22.225Z,16.85
2022-10-17T12:07:01.084Z,16.94
2022-10-17T12:09:50.513Z,16.98
2022-10-17T12:12:31.374Z,17.04
2022-10-17T12:15:23.531Z,16.98
2022-10-17T12:18:03.835Z,16.93
2022-10-17T12:20:35.663Z,16.99
2022-10-17T12:23:13.788Z,16.96
2022-10-17T12:26:04.863Z,16.94
2022-10-17T12:28:43.771Z,16.95
2022-10-17T12:31:23.183Z,16.96
2022-10-17T12:33:55.369Z,16.93
2022-10-17T12:36:30.749Z,16.86
2022-10-17T12:39:07.981Z,16.89
2022-10-17T12:41:44.806Z,16.91
2022-10-17T12:44:21.926Z,16.95
2022-10-17T12:46:54.458Z,16.99
2022-10-17T12:49:41.693Z,17.06
2022-10-17T12:52:22.529Z,17.09
2022-10-17T12:55:00.590Z,17.21
2022-10-17T12:57:48.862Z,17.24
2022-10-17T13:00:36.236Z,17.25
2022-10-17T13:03:17.311Z,17.28
2022-10-17T13:05:55.510Z,17.39
2022-10-17T13:08:31.021Z,17.38
2022-10-17T13:11:00.504Z,17.36
2022-10-17T13:13:44.528Z,17.34
2022-10-17T13:16:31.201Z,17.29
2022-10-17T13:19:02.071Z,17.30
2022-10-17T13:21:31.739Z,17.32
2022-10-17T13:24:01.241Z,17.32
2022-10-17T13:26:30.862Z,17.24
2022-10-17T13:29:13.964Z,17.24
2022-10-17T13:31:45.276Z,17.25
2022-10-17T13:34:22.426Z,17.23
2022-10-17T13:36:57.042Z,17.28
2022-10-17T13:39:44.788Z,17.22
2022-10-17T13:41:59.848Z,17.08
2022-10-17T13:44:32.096Z,17.18
2022-10-17T13:47:01.568Z,17.19
2022-10-17T13:49:41.844Z,17.20
2022-10-17T13:52:19.360Z,17.16
2022-10-17T13:54:54.032Z,17.21
2022-10-17T13:57:25.890Z,17.24
2022-10-17T13:59:58.077Z,17.19
2022-10-17T14:02:30.851Z,17.20
2022-10-17T14:05:19.223Z,17.25
2022-10-17T14:08:15.208Z,17.30
2022-10-17T14:10:38.943Z,17.31
2022-10-17T14:13:11.204Z,17.46
2022-10-17T14:15:43.951Z,17.55
2022-10-17T14:18:15.237Z,17.55
2022-10-17T14:23:38.501Z,17.59
2022-10-17T14:26:13.086Z,17.62
2022-10-17T14:28:44.867Z,17.57
2022-10-17T14:31:25.049Z,17.56
2022-10-17T14:33:55.333Z,17.60
2022-10-17T14:36:35.826Z,17.55
2022-10-17T14:39:11.835Z,17.52
2022-10-17T14:41:44.011Z,17.53
2022-10-17T14:44:11.813Z,17.51
2022-10-17T14:46:47.309Z,17.46
2022-10-17T14:49:23.388Z,17.48
2022-10-17T14:52:16.745Z,17.50
2022-10-17T14:54:46.577Z,17.49
2022-10-17T14:57:22.374Z,17.54
2022-10-17T14:59:54.571Z,17.51
2022-10-17T15:02:23.307Z,17.46
2022-10-17T15:04:53.187Z,17.51
2022-10-17T15:07:23.553Z,17.50
2022-10-17T15:09:54.178Z,17.48
2022-10-17T15:12:25.649Z,17.48
2022-10-17T15:14:55.407Z,17.49
2022-10-17T15:17:34.760Z,17.51
2022-10-17T15:20:04.224Z,17.56
2022-10-17T15:22:35.226Z,17.53
2022-10-17T15:25:05.043Z,17.48
2022-10-17T15:27:34.375Z,17.40
2022-10-17T15:30:03.994Z,17.40
2022-10-17T15:32:33.471Z,17.36
2022-10-17T15:35:03.729Z,17.29
2022-10-17T15:37:34.653Z,17.22
2022-10-17T15:40:04.223Z,17.11
2022-10-17T15:42:33.420Z,17.07
2022-10-17T15:45:03.020Z,16.99
2022-10-17T15:47:34.305Z,16.91
2022-10-17T15:50:06.001Z,16.93
2022-10-17T15:52:35.999Z,16.90
2022-10-17T15:55:05.721Z,16.88
2022-10-17T15:57:40.328Z,16.86
2022-10-17T16:00:22.995Z,16.77
2022-10-17T16:02:52.533Z,16.75
2022-10-17T16:05:25.817Z,16.73
2022-10-17T16:07:55.524Z,16.69
2022-10-17T16:10:26.985Z,16.67
2022-10-17T16:12:56.696Z,16.68
2022-10-17T16:15:28.112Z,16.68
2022-10-17T16:18:01.632Z,16.68
2022-10-17T16:20:29.569Z,16.67
2022-10-17T16:23:00.446Z,16.64
2022-10-17T16:25:31.084Z,16.64
2022-10-17T16:28:01.374Z,16.59
2022-10-17T16:30:32.832Z,16.53
2022-10-17T16:33:02.120Z,16.53
2022-10-17T16:35:36.542Z,16.50
2022-10-17T16:38:03.422Z,16.45
2022-10-17T16:40:32.793Z,16.38
2022-10-17T16:43:02.214Z,16.36
2022-10-17T16:45:32.029Z,16.33
2022-10-17T16:48:01.550Z,16.33
2022-10-17T16:50:32.781Z,16.26
2022-10-17T16:53:03.843Z,16.24
2022-10-17T16:55:33.097Z,16.23
2022-10-17T16:58:02.469Z,16.22
2022-10-17T17:00:32.130Z,16.14
2022-10-17T17:03:01.666Z,16.08
2022-10-17T17:05:30.994Z,16.03
2022-10-17T17:08:01.047Z,15.98
2022-10-17T17:10:30.332Z,15.90
2022-10-17T17:13:01.199Z,15.86
2022-10-17T17:15:30.510Z,15.79
2022-10-17T17:18:04.857Z,15.77
2022-10-17T17:20:31.056Z,15.78
2022-10-17T17:23:00.538Z,15.77
2022-10-17T17:25:29.952Z,15.78
2022-10-17T17:27:59.320Z,15.81
2022-10-17T17:30:29.893Z,15.80
2022-10-17T17:33:00.605Z,15.78
2022-10-17T17:35:31.686Z,15.77
2022-10-17T17:38:03.109Z,15.74
2022-10-17T17:40:34.149Z,15.69
2022-10-17T17:43:04.132Z,15.69
2022-10-17T17:45:33.533Z,15.70
2022-10-17T17:48:02.801Z,15.70
2022-10-17T17:50:32.983Z,15.71
2022-10-17T17:53:02.376Z,15.70
2022-10-17T17:55:31.846Z,15.71
2022-10-17T17:58:01.374Z,15.68
2022-10-17T18:00:30.965Z,15.65
2022-10-17T18:03:00.478Z,15.65
2022-10-17T18:05:31.191Z,15.68
2022-10-17T18:08:00.641Z,15.65
2022-10-17T18:10:30.809Z,15.67
2022-10-17T18:13:00.313Z,15.64
2022-10-17T18:15:29.741Z,15.65
2022-10-17T18:17:59.186Z,15.64
2022-10-17T18:20:28.621Z,15.61
2022-10-17T18:23:00.610Z,15.63
2022-10-17T18:25:29.023Z,15.58
2022-10-17T18:27:58.377Z,15.58
2022-10-17T18:30:28.954Z,15.59
2022-10-17T18:32:58.714Z,15.59
2022-10-17T18:35:28.381Z,15.53
2022-10-17T18:37:57.684Z,15.57
2022-10-17T18:40:28.301Z,15.57
2022-10-17T18:42:57.897Z,15.60
2022-10-17T18:45:26.696Z,15.64
2022-10-17T18:47:55.946Z,15.61
2022-10-17T18:50:26.179Z,15.60
2022-10-17T18:52:55.434Z,15.58
2022-10-17T18:55:25.003Z,15.58
2022-10-17T18:57:54.259Z,15.57
2022-10-17T19:00:23.594Z,15.53
2022-10-17T19:02:53.275Z,15.54
2022-10-17T19:05:22.763Z,15.55
2022-10-17T19:07:52.083Z,15.52
2022-10-17T19:10:21.723Z,15.50
2022-10-17T19:12:53.254Z,15.52
2022-10-17T19:15:25.838Z,15.52
2022-10-17T19:17:53.696Z,15.49
2022-10-17T19:20:22.974Z,15.48
2022-10-17T19:25:22.794Z,15.47
2022-10-17T19:27:52.782Z,15.46
2022-10-17T19:30:22.452Z,15.43
2022-10-17T19:32:52.482Z,15.42
2022-10-17T19:35:22.033Z,15.41
2022-10-17T19:37:51.500Z,15.40
2022-10-17T19:40:21.140Z,15.41
2022-10-17T19:42:50.697Z,15.43
2022-10-17T19:45:20.137Z,15.42
2022-10-17T19:47:49.443Z,15.40
2022-10-17T19:50:18.903Z,15.39
2022-10-17T19:52:49.023Z,15.41
2022-10-17T19:55:18.554Z,15.44
2022-10-17T19:57:48.599Z,15.45
2022-10-17T20:00:18.335Z,15.46
2022-10-17T20:02:47.581Z,15.52
2022-10-17T20:05:18.915Z,15.58
2022-10-17T20:07:48.523Z,15.62
2022-10-17T20:10:18.945Z,15.63
2022-10-17T20:12:48.534Z,15.66
2022-10-17T20:15:18.147Z,15.62
2022-10-17T20:17:47.673Z,15.59
2022-10-17T20:20:17.489Z,15.59
2022-10-17T20:22:46.998Z,15.55
2022-10-17T20:25:16.651Z,15.60
2022-10-17T20:27:46.381Z,15.57
2022-10-17T20:30:15.972Z,15.52
2022-10-17T20:32:45.248Z,15.55
2022-10-17T20:35:14.525Z,15.52
2022-10-17T20:37:43.950Z,15.52
2022-10-17T20:40:34.281Z,15.45
2022-10-17T20:42:44.864Z,15.44
2022-10-17T20:45:14.943Z,15.43
2022-10-17T20:47:48.163Z,15.42
2022-10-17T20:50:15.450Z,15.38
2022-10-17T20:52:44.794Z,15.34
2022-10-17T20:55:14.359Z,15.29
2022-10-17T20:57:43.639Z,15.27
2022-10-17T21:00:13.811Z,15.23
2022-10-17T21:02:43.255Z,15.16
2022-10-17T21:05:13.766Z,15.11
2022-10-17T21:07:43.213Z,15.06
2022-10-17T21:10:34.316Z,15.02
2022-10-17T21:12:53.917Z,15.01
2022-10-17T21:15:14.538Z,14.95
2022-10-17T21:17:43.811Z,14.87
2022-10-17T21:20:13.721Z,14.74
2022-10-17T21:22:42.968Z,14.69
2022-10-17T21:25:12.262Z,14.64
2022-10-17T21:27:41.939Z,14.62
2022-10-17T21:30:11.830Z,14.59
2022-10-17T21:32:57.080Z,14.55
2022-10-17T21:35:12.987Z,14.52
2022-10-17T21:37:42.397Z,14.48
2022-10-17T21:40:13.070Z,14.62
2022-10-17T21:42:42.655Z,14.61
2022-10-17T21:45:15.587Z,14.60
2022-10-17T21:47:54.950Z,14.60
2022-10-17T21:50:13.971Z,14.53
2022-10-17T21:52:43.419Z,14.48
2022-10-17T21:55:12.664Z,14.54
2022-10-17T21:57:42.134Z,14.64
2022-10-17T22:00:12.908Z,14.70
2022-10-17T22:02:41.621Z,14.67
2022-10-17T22:05:11.160Z,14.62
2022-10-17T22:07:40.412Z,14.63
2022-10-17T22:10:10.284Z,14.61
2022-10-17T22:12:39.521Z,14.61
2022-10-17T22:15:09.746Z,14.58
2022-10-17T22:17:38.973Z,14.56
2022-10-17T22:20:09.055Z,14.60
2022-10-17T22:22:38.470Z,14.63
2022-10-17T22:25:08.434Z,14.61
2022-10-17T22:27:37.857Z,14.58
2022-10-17T22:30:08.322Z,14.59
2022-10-17T22:32:37.763Z,14.60
2022-10-17T22:35:08.337Z,14.58
2022-10-17T22:37:37.736Z,14.59
2022-10-17T22:40:08.279Z,14.55
2022-10-17T22:42:37.530Z,14.57
2022-10-17T22:45:08.338Z,14.55
2022-10-17T22:47:37.605Z,14.56
2022-10-17T22:50:07.133Z,14.53
2022-10-17T22:52:36.451Z,14.53
2022-10-17T22:55:06.326Z,14.47
2022-10-17T22:57:36.312Z,14.44
2022-10-17T23:00:07.687Z,14.37
2022-10-17T23:02:36.987Z,14.33
2022-10-17T23:05:07.706Z,14.32
2022-10-17T23:07:37.124Z,14.37
2022-10-17T23:10:07.620Z,14.39
2022-10-17T23:12:37.004Z,14.39
2022-10-17T23:15:07.191Z,14.40
2022-10-17T23:17:36.417Z,14.43
2022-10-17T23:20:06.323Z,14.46
2022-10-17T23:22:35.539Z,14.46
2022-10-17T23:25:05.553Z,14.43
2022-10-17T23:27:36.306Z,14.41
2022-10-17T23:30:06.669Z,14.39
2022-10-17T23:32:35.953Z,14.37
2022-10-17T23:35:06.271Z,14.31
2022-10-17T23:37:36.021Z,14.35
2022-10-17T23:40:06.921Z,14.34
2022-10-17T23:42:36.246Z,14.32
2022-10-17T23:45:06.224Z,14.29
2022-10-17T23:47:35.466Z,14.28
2022-10-17T23:50:05.943Z,14.29
2022-10-17T23:52:35.222Z,14.29
2022-10-17T23:55:05.080Z,14.30
2022-10-17T23:57:34.503Z,14.28
